createdAt,value
2022-10-13T00:01:35.720Z,7.60
2022-10-13T00:06:29.414Z,7.60
2022-10-13T00:08:56.698Z,7.60
2022-10-13T00:11:24.926Z,7.10
2022-10-13T00:13:52.094Z,8.10
2022-10-13T00:16:19.869Z,7.20
2022-10-13T00:18:46.898Z,7.60
2022-10-13T00:21:18.133Z,7.10
2022-10-13T00:23:44.912Z,7.40
2022-10-13T00:26:13.872Z,7.10
2022-10-13T00:28:40.921Z,7.20
2022-10-13T00:31:18.202Z,6.90
2022-10-13T00:33:44.916Z,7.50
2022-10-13T00:36:11.848Z,8.80
2022-10-13T00:38:38.482Z,7.20
2022-10-13T00:41:05.265Z,7.10
2022-10-13T00:43:52.245Z,7.50
2022-10-13T00:46:18.928Z,7.30
2022-10-13T00:48:45.938Z,7.10
2022-10-13T00:51:16.171Z,7.00
2022-10-13T00:53:43.363Z,7.30
2022-10-13T00:56:11.205Z,8.60
2022-10-13T00:58:39.097Z,7.10
2022-10-13T01:01:06.511Z,8.40
2022-10-13T01:03:33.512Z,9.00
2022-10-13T01:06:02.243Z,7.10
2022-10-13T01:08:29.477Z,7.00
2022-10-13T01:11:14.841Z,7.50
2022-10-13T01:13:56.391Z,7.50
2022-10-13T01:16:39.757Z,7.10
2022-10-13T01:19:25.213Z,7.60
2022-10-13T01:22:10.588Z,7.40
2022-10-13T01:24:44.931Z,7.50
2022-10-13T01:27:25.346Z,7.40
2022-10-13T01:30:02.090Z,7.80
2022-10-13T01:32:47.347Z,9.50
2022-10-13T01:35:17.100Z,7.90
2022-10-13T01:37:46.452Z,7.80
2022-10-13T01:40:25.022Z,8.50
2022-10-13T01:42:51.598Z,7.50
2022-10-13T01:47:45.923Z,7.40
2022-10-13T01:50:13.745Z,7.50
2022-10-13T01:52:40.767Z,7.40
2022-10-13T01:55:08.382Z,7.40
2022-10-13T01:57:36.845Z,7.40
2022-10-13T02:00:09.307Z,7.10
2022-10-13T02:02:45.038Z,7.80
2022-10-13T02:05:30.026Z,7.70
2022-10-13T02:08:01.558Z,7.80
2022-10-13T02:10:40.064Z,7.50
2022-10-13T02:13:07.983Z,7.90
2022-10-13T02:15:40.496Z,7.70
2022-10-13T02:18:07.948Z,7.60
2022-10-13T02:20:34.950Z,7.70
2022-10-13T02:23:04.186Z,7.60
2022-10-13T02:25:30.920Z,7.50
2022-10-13T02:27:58.468Z,7.70
2022-10-13T02:30:26.616Z,9.40
2022-10-13T02:32:53.305Z,9.20
2022-10-13T02:35:19.953Z,7.50
2022-10-13T02:37:46.984Z,8.00
2022-10-13T02:40:13.883Z,7.70
2022-10-13T02:42:40.546Z,7.90
2022-10-13T02:45:07.477Z,7.40
2022-10-13T02:47:34.090Z,8.20
2022-10-13T02:50:00.847Z,7.70
2022-10-13T02:52:27.468Z,7.60
2022-10-13T02:54:54.143Z,8.50
2022-10-13T02:57:20.743Z,7.50
2022-10-13T02:59:47.374Z,8.70
2022-10-13T03:02:14.492Z,7.50
2022-10-13T03:04:41.136Z,7.20
2022-10-13T03:07:07.789Z,7.10
2022-10-13T03:09:34.474Z,8.50
2022-10-13T03:12:01.077Z,9.40
2022-10-13T03:14:27.779Z,7.50
2022-10-13T03:16:54.435Z,9.30
2022-10-13T03:19:21.100Z,8.10
2022-10-13T03:21:47.988Z,8.10
2022-10-13T03:24:14.620Z,8.90
2022-10-13T03:26:41.236Z,7.50
2022-10-13T03:29:07.875Z,7.60
2022-10-13T03:31:34.525Z,7.30
2022-10-13T03:34:01.159Z,9.90
2022-10-13T03:36:27.808Z,7.80
2022-10-13T03:38:54.435Z,7.90
2022-10-13T03:41:21.264Z,7.60
2022-10-13T03:43:47.874Z,8.00
2022-10-13T03:46:15.792Z,8.20
2022-10-13T03:48:42.365Z,7.90
2022-10-13T03:51:09.996Z,7.60
2022-10-13T03:53:36.957Z,7.70
2022-10-13T03:56:04.319Z,8.10
2022-10-13T03:58:31.264Z,8.50
2022-10-13T04:01:02.046Z,9.00
2022-10-13T04:03:28.930Z,8.00
2022-10-13T04:05:55.478Z,8.20
2022-10-13T04:10:57.576Z,8.00
2022-10-13T04:13:24.159Z,8.10
2022-10-13T04:15:50.698Z,8.00
2022-10-13T04:18:17.238Z,8.00
2022-10-13T04:20:43.787Z,8.00
2022-10-13T04:23:10.346Z,8.00
2022-10-13T04:30:31.225Z,8.10
2022-10-13T04:32:57.764Z,8.20
2022-10-13T04:40:18.487Z,8.20
2022-10-13T04:42:45.088Z,8.10
2022-10-13T04:55:00.142Z,8.00
2022-10-13T05:54:06.394Z,8.40
2022-10-13T05:59:01.961Z,8.70
2022-10-13T06:01:30.810Z,8.70
2022-10-13T06:04:01.336Z,8.60
2022-10-13T06:06:31.347Z,8.50
2022-10-13T06:08:58.609Z,8.80
2022-10-13T06:21:13.489Z,8.70
2022-10-13T06:23:40.070Z,8.80
2022-10-13T06:26:07.407Z,8.80
2022-10-13T06:28:34.005Z,8.80
2022-10-13T06:31:00.579Z,8.90
2022-10-13T06:33:27.184Z,9.00
2022-10-13T06:35:53.979Z,9.00
2022-10-13T06:38:20.542Z,9.10
2022-10-13T06:40:47.130Z,9.20
2022-10-13T06:43:13.998Z,9.20
2022-10-13T06:45:40.587Z,9.30
2022-10-13T06:48:07.248Z,9.30
2022-10-13T06:50:33.856Z,9.40
2022-10-13T06:53:00.471Z,9.40
2022-10-13T06:55:27.071Z,9.50
2022-10-13T06:57:53.637Z,9.50
2022-10-13T07:00:20.405Z,9.50
2022-10-13T07:02:50.168Z,9.60
2022-10-13T07:05:16.867Z,9.70
2022-10-13T07:07:43.611Z,9.80
2022-10-13T07:10:10.214Z,9.80
2022-10-13T07:12:36.763Z,9.90
2022-10-13T07:15:03.430Z,9.90
2022-10-13T07:17:29.989Z,10.00
2022-10-13T07:19:57.938Z,10.00
2022-10-13T07:22:25.017Z,10.10
2022-10-13T07:24:51.574Z,10.00
2022-10-13T07:27:18.147Z,10.10
2022-10-13T07:29:44.685Z,10.10
2022-10-13T07:32:11.274Z,10.30
2022-10-13T07:34:37.894Z,10.20
2022-10-13T07:37:04.515Z,10.30
2022-10-13T07:39:31.103Z,10.40
2022-10-13T07:41:57.759Z,10.40
2022-10-13T07:44:24.426Z,10.40
2022-10-13T07:46:51.060Z,10.50
2022-10-13T07:49:17.765Z,10.60
2022-10-13T07:51:44.344Z,10.80
2022-10-13T07:54:10.948Z,10.90
2022-10-13T07:56:38.313Z,11.00
2022-10-13T07:59:05.316Z,11.30
2022-10-13T08:01:32.199Z,11.30
2022-10-13T08:03:59.211Z,10.60
2022-10-13T08:06:26.336Z,11.10
2022-10-13T08:08:53.009Z,11.30
2022-10-13T08:11:19.662Z,11.20
2022-10-13T08:13:47.089Z,11.30
2022-10-13T08:16:13.878Z,11.30
2022-10-13T08:18:40.418Z,11.20
2022-10-13T08:21:39.132Z,11.50
2022-10-13T08:23:55.551Z,11.40
2022-10-13T08:26:26.641Z,11.40
2022-10-13T08:31:40.075Z,11.30
2022-10-13T08:34:06.831Z,11.40
2022-10-13T08:36:33.392Z,11.30
2022-10-13T08:39:00.018Z,11.20
2022-10-13T08:41:28.427Z,11.30
2022-10-13T08:44:47.591Z,11.40
2022-10-13T08:47:08.901Z,11.60
2022-10-13T08:49:35.577Z,11.60
2022-10-13T08:52:05.554Z,11.50
2022-10-13T08:54:32.375Z,11.60
2022-10-13T08:56:59.003Z,11.80
2022-10-13T09:01:53.704Z,11.90
2022-10-13T09:04:33.165Z,11.90
2022-10-13T09:07:03.007Z,11.90
2022-10-13T09:09:29.962Z,11.90
2022-10-13T09:11:58.978Z,11.90
2022-10-13T09:14:27.903Z,12.20
2022-10-13T09:16:56.189Z,12.90
2022-10-13T09:21:51.432Z,12.50
2022-10-13T09:24:19.374Z,12.40
2022-10-13T09:26:46.814Z,12.60
2022-10-13T09:29:25.186Z,12.40
2022-10-13T09:31:54.115Z,12.20
2022-10-13T09:34:20.642Z,12.20
2022-10-13T09:37:00.560Z,12.20
2022-10-13T09:39:27.786Z,12.20
2022-10-13T09:42:14.374Z,12.20
2022-10-13T09:44:41.064Z,12.20
2022-10-13T09:47:17.152Z,12.20
2022-10-13T09:49:43.816Z,12.40
2022-10-13T09:52:14.756Z,12.30
2022-10-13T09:54:56.386Z,12.40
2022-10-13T09:57:30.254Z,12.50
2022-10-13T10:00:13.439Z,12.60
2022-10-13T10:02:42.777Z,12.70
2022-10-13T10:05:21.576Z,12.70
2022-10-13T10:07:48.413Z,12.70
2022-10-13T10:10:31.445Z,12.70
2022-10-13T10:12:57.986Z,12.60
2022-10-13T10:15:29.376Z,12.60
2022-10-13T10:17:58.734Z,12.80
2022-10-13T10:23:05.825Z,13.00
2022-10-13T10:25:41.833Z,12.90
2022-10-13T10:28:22.546Z,13.00
2022-10-13T10:31:12.686Z,13.30
2022-10-13T10:33:59.430Z,13.50
2022-10-13T10:36:44.263Z,13.80
2022-10-13T10:39:13.985Z,13.90
2022-10-13T10:41:43.532Z,14.10
2022-10-13T10:44:11.226Z,14.00
2022-10-13T10:46:42.418Z,14.10
2022-10-13T10:49:15.021Z,14.40
2022-10-13T10:51:42.140Z,14.40
2022-10-13T10:54:27.608Z,14.70
2022-10-13T10:57:09.775Z,14.60
2022-10-13T10:59:40.168Z,14.30
2022-10-13T11:02:06.691Z,14.10
2022-10-13T11:04:40.177Z,14.30
2022-10-13T11:07:14.410Z,14.10
2022-10-13T11:09:41.009Z,14.30
2022-10-13T11:12:20.520Z,14.30
2022-10-13T11:14:50.017Z,14.30
2022-10-13T11:17:18.569Z,14.30
2022-10-13T11:19:48.002Z,14.40
2022-10-13T11:22:16.083Z,14.20
2022-10-13T11:24:42.626Z,14.20
2022-10-13T11:27:10.457Z,14.70
2022-10-13T11:29:49.199Z,14.40
2022-10-13T11:32:25.763Z,14.20
2022-10-13T11:35:01.853Z,14.10
2022-10-13T11:38:05.876Z,14.30
2022-10-13T11:40:45.020Z,14.40
2022-10-13T11:43:50.274Z,14.40
2022-10-13T11:46:22.738Z,14.50
2022-10-13T11:49:07.845Z,14.60
2022-10-13T11:51:49.815Z,14.70
2022-10-13T11:54:19.360Z,14.80
2022-10-13T11:56:53.495Z,14.90
2022-10-13T11:59:20.063Z,15.10
2022-10-13T12:01:46.632Z,15.10
2022-10-13T12:04:14.428Z,15.50
2022-10-13T12:06:41.772Z,15.10
2022-10-13T12:09:18.679Z,15.50
2022-10-13T12:11:45.762Z,15.50
2022-10-13T12:14:24.064Z,15.90
2022-10-13T12:16:57.943Z,15.60
2022-10-13T12:19:25.719Z,15.50
2022-10-13T12:21:57.235Z,15.30
2022-10-13T12:24:25.140Z,15.30
2022-10-13T12:26:52.262Z,15.40
2022-10-13T12:29:19.889Z,15.30
2022-10-13T12:31:48.336Z,15.20
2022-10-13T12:34:23.919Z,15.20
2022-10-13T12:37:01.353Z,15.20
2022-10-13T12:39:32.390Z,15.20
2022-10-13T12:42:00.835Z,15.20
2022-10-13T12:44:28.351Z,15.10
2022-10-13T12:46:58.664Z,15.00
2022-10-13T12:49:27.218Z,15.10
2022-10-13T12:52:10.747Z,15.50
2022-10-13T12:54:39.144Z,15.10
2022-10-13T12:57:20.310Z,15.20
2022-10-13T12:59:46.967Z,15.10
2022-10-13T13:02:27.737Z,15.10
2022-10-13T13:04:54.284Z,14.90
2022-10-13T13:07:29.108Z,14.70
2022-10-13T13:10:10.007Z,14.70
2022-10-13T13:12:36.973Z,14.60
2022-10-13T13:15:21.606Z,14.60
2022-10-13T13:18:03.553Z,14.70
2022-10-13T13:20:42.129Z,14.80
2022-10-13T13:23:20.843Z,14.80
2022-10-13T13:25:48.540Z,14.80
2022-10-13T13:28:15.977Z,14.60
2022-10-13T13:30:42.632Z,15.10
2022-10-13T13:33:09.522Z,14.70
2022-10-13T13:35:37.051Z,14.40
2022-10-13T13:38:04.350Z,15.00
2022-10-13T13:40:31.640Z,14.90
2022-10-13T13:42:58.242Z,14.40
2022-10-13T13:45:25.407Z,14.70
2022-10-13T13:47:52.048Z,14.70
2022-10-13T13:50:20.451Z,15.40
2022-10-13T13:52:47.313Z,15.80
2022-10-13T13:55:14.089Z,15.80
2022-10-13T13:57:41.904Z,16.00
2022-10-13T14:00:09.121Z,15.00
2022-10-13T14:02:35.935Z,14.90
2022-10-13T14:05:02.496Z,15.60
2022-10-13T14:07:29.128Z,15.00
2022-10-13T14:09:59.259Z,15.00
2022-10-13T14:12:31.864Z,14.80
2022-10-13T14:14:58.612Z,14.80
2022-10-13T14:17:28.523Z,14.30
2022-10-13T14:19:55.469Z,14.50
2022-10-13T14:22:22.573Z,14.10
2022-10-13T14:24:49.429Z,14.80
2022-10-13T14:27:16.015Z,14.50
2022-10-13T14:29:42.579Z,14.30
2022-10-13T14:32:09.205Z,14.70
2022-10-13T14:34:35.758Z,14.30
2022-10-13T14:37:02.377Z,14.70
2022-10-13T14:39:29.001Z,14.00
2022-10-13T14:41:55.598Z,14.00
2022-10-13T14:44:22.174Z,14.00
2022-10-13T14:46:48.741Z,14.30
2022-10-13T14:49:15.306Z,13.90
2022-10-13T14:51:41.908Z,14.50
2022-10-13T14:54:08.493Z,14.40
2022-10-13T14:56:35.221Z,13.90
2022-10-13T14:59:03.091Z,14.50
2022-10-13T15:01:29.715Z,13.90
2022-10-13T15:03:56.493Z,14.10
2022-10-13T15:06:24.278Z,13.80
2022-10-13T15:08:51.409Z,14.30
2022-10-13T15:11:18.720Z,13.40
2022-10-13T15:13:45.327Z,14.20
2022-10-13T15:16:16.699Z,13.90
2022-10-13T15:18:43.415Z,13.70
2022-10-13T15:21:10.027Z,14.10
2022-10-13T15:23:36.609Z,13.80
2022-10-13T15:26:03.812Z,14.30
2022-10-13T15:28:34.430Z,13.70
2022-10-13T15:31:01.057Z,14.10
2022-10-13T15:33:29.500Z,14.10
2022-10-13T15:35:56.342Z,14.20
2022-10-13T15:38:23.095Z,13.60
2022-10-13T15:40:49.855Z,13.60
2022-10-13T15:43:16.792Z,13.90
2022-10-13T15:45:43.389Z,14.20
2022-10-13T15:48:10.769Z,13.80
2022-10-13T15:50:40.654Z,14.20
2022-10-13T15:53:07.621Z,13.50
2022-10-13T15:55:34.501Z,14.50
2022-10-13T15:58:01.057Z,14.30
2022-10-13T16:00:30.766Z,13.70
2022-10-13T16:02:59.692Z,13.60
2022-10-13T16:05:26.273Z,13.20
2022-10-13T16:07:52.831Z,13.30
2022-10-13T16:10:21.907Z,14.30
2022-10-13T16:12:49.844Z,13.30
2022-10-13T16:15:17.846Z,13.20
2022-10-13T16:17:48.962Z,13.20
2022-10-13T16:20:17.054Z,13.20
2022-10-13T16:22:45.580Z,13.10
2022-10-13T16:25:15.831Z,13.10
2022-10-13T16:27:44.719Z,13.10
2022-10-13T16:30:17.158Z,13.00
2022-10-13T16:32:48.725Z,13.00
2022-10-13T16:41:08.547Z,13.50
2022-10-13T16:43:39.478Z,12.90
2022-10-13T16:46:08.324Z,12.90
2022-10-13T16:48:34.969Z,12.90
2022-10-13T16:51:05.420Z,13.00
2022-10-13T16:53:32.233Z,13.00
2022-10-13T16:55:58.845Z,13.10
2022-10-13T16:58:25.406Z,13.30
2022-10-13T17:00:52.064Z,12.90
2022-10-13T17:03:18.707Z,12.90
2022-10-13T17:05:45.295Z,12.90
2022-10-13T17:08:11.905Z,12.80
2022-10-13T17:10:38.539Z,12.80
2022-10-13T17:13:05.191Z,12.80
2022-10-13T17:15:31.824Z,13.70
2022-10-13T17:20:25.453Z,12.50
2022-10-13T17:22:52.091Z,12.60
2022-10-13T17:25:18.658Z,12.60
2022-10-13T17:27:45.415Z,12.60
2022-10-13T17:30:12.081Z,12.60
2022-10-13T17:32:39.098Z,12.60
2022-10-13T17:35:06.142Z,12.60
2022-10-13T17:37:32.810Z,12.60
2022-10-13T17:39:59.432Z,12.60
2022-10-13T17:42:26.079Z,13.20
2022-10-13T17:44:52.707Z,13.20
2022-10-13T17:47:19.763Z,12.60
2022-10-13T17:49:46.651Z,13.20
2022-10-13T17:52:13.268Z,12.60
2022-10-13T17:54:39.853Z,13.30
2022-10-13T17:57:06.466Z,12.90
2022-10-13T17:59:33.124Z,12.80
2022-10-13T18:01:59.778Z,12.70
2022-10-13T18:04:28.819Z,13.30
2022-10-13T18:06:55.426Z,12.80
2022-10-13T18:09:24.261Z,12.60
2022-10-13T18:11:52.319Z,12.80
2022-10-13T18:14:19.383Z,13.10
2022-10-13T18:16:46.722Z,13.20
2022-10-13T18:21:40.385Z,12.40
2022-10-13T18:24:07.372Z,12.30
2022-10-13T18:26:37.031Z,12.30
2022-10-13T18:31:32.184Z,12.20
2022-10-13T18:33:59.899Z,12.10
2022-10-13T18:36:30.869Z,12.40
2022-10-13T18:39:02.022Z,12.00
2022-10-13T18:41:28.644Z,12.00
2022-10-13T18:43:55.291Z,12.90
2022-10-13T18:46:21.959Z,11.70
2022-10-13T18:48:48.541Z,11.30
2022-10-13T18:51:16.691Z,11.60
2022-10-13T18:53:44.453Z,12.20
2022-10-13T18:56:10.992Z,12.30
2022-10-13T18:58:37.645Z,11.70
2022-10-13T19:01:05.673Z,11.70
2022-10-13T19:05:59.628Z,11.70
2022-10-13T19:08:26.512Z,11.60
2022-10-13T19:10:53.122Z,11.70
2022-10-13T19:13:19.742Z,11.70
2022-10-13T19:15:46.593Z,11.70
2022-10-13T19:18:13.556Z,11.70
2022-10-13T19:20:40.432Z,11.70
2022-10-13T19:23:07.072Z,12.40
2022-10-13T19:25:33.680Z,12.30
2022-10-13T19:28:00.282Z,11.80
2022-10-13T19:30:27.757Z,11.70
2022-10-13T19:32:54.401Z,11.70
2022-10-13T19:35:21.073Z,11.70
2022-10-13T19:37:47.726Z,11.70
2022-10-13T19:40:14.826Z,11.60
2022-10-13T19:42:41.450Z,12.00
2022-10-13T19:45:08.211Z,11.60
2022-10-13T19:47:34.845Z,11.60
2022-10-13T19:50:01.479Z,11.60
2022-10-13T19:54:55.137Z,11.50
2022-10-13T19:57:22.171Z,11.40
2022-10-13T19:59:49.004Z,11.40
2022-10-13T20:02:15.627Z,11.50
2022-10-13T20:04:42.223Z,12.00
2022-10-13T20:07:08.867Z,11.90
2022-10-13T20:09:35.475Z,11.00
2022-10-13T20:12:02.096Z,11.90
2022-10-13T20:14:28.681Z,12.50
2022-10-13T20:16:56.865Z,11.50
2022-10-13T20:19:23.488Z,11.40
2022-10-13T20:21:53.133Z,11.40
2022-10-13T20:24:21.549Z,12.40
2022-10-13T20:26:48.149Z,10.80
2022-10-13T20:29:15.204Z,12.80
2022-10-13T20:31:42.183Z,11.20
2022-10-13T20:34:09.938Z,11.40
2022-10-13T20:36:39.101Z,12.20
2022-10-13T20:39:06.620Z,11.00
2022-10-13T20:41:33.259Z,11.30
2022-10-13T20:44:00.907Z,12.10
2022-10-13T20:46:27.750Z,11.70
2022-10-13T20:49:11.358Z,11.50
2022-10-13T20:51:39.152Z,11.70
2022-10-13T20:54:06.153Z,12.60
2022-10-13T20:56:32.772Z,11.70
2022-10-13T20:59:06.948Z,11.10
2022-10-13T21:01:33.949Z,11.70
2022-10-13T21:04:00.572Z,11.70
2022-10-13T21:06:27.389Z,11.70
2022-10-13T21:08:54.087Z,11.40
2022-10-13T21:11:21.234Z,12.50
2022-10-13T21:13:48.496Z,11.60
2022-10-13T21:16:15.115Z,11.80
2022-10-13T21:18:48.035Z,12.60
2022-10-13T21:21:15.611Z,11.60
2022-10-13T21:23:42.234Z,11.60
2022-10-13T21:26:09.839Z,12.00
2022-10-13T21:28:37.503Z,11.60
2022-10-13T21:31:08.215Z,12.20
2022-10-13T21:33:35.814Z,11.50
2022-10-13T21:36:06.984Z,12.70
2022-10-13T21:38:33.643Z,11.60
2022-10-13T21:41:00.249Z,11.60
2022-10-13T21:43:26.866Z,11.40
2022-10-13T21:45:53.467Z,12.70
2022-10-13T21:48:20.248Z,12.80
2022-10-13T21:50:46.837Z,12.40
2022-10-13T21:53:13.546Z,11.60
2022-10-13T21:55:40.154Z,12.60
2022-10-13T21:58:06.745Z,10.70
2022-10-13T22:00:33.404Z,11.60
2022-10-13T22:03:00.112Z,11.50
2022-10-13T22:05:26.748Z,12.70
2022-10-13T22:07:53.330Z,12.30
2022-10-13T22:10:20.003Z,11.40
2022-10-13T22:12:46.654Z,12.50
2022-10-13T22:15:13.293Z,11.30
2022-10-13T22:17:39.931Z,11.50
2022-10-13T22:20:06.683Z,11.60
2022-10-13T22:22:33.325Z,11.60
2022-10-13T22:24:59.963Z,11.90
2022-10-13T22:27:26.622Z,11.20
2022-10-13T22:29:53.543Z,11.50
2022-10-13T22:32:20.164Z,11.80
2022-10-13T22:34:46.823Z,11.50
2022-10-13T22:37:13.459Z,12.20
2022-10-13T22:39:40.283Z,11.60
2022-10-13T22:42:06.921Z,12.10
2022-10-13T22:44:33.559Z,11.90
2022-10-13T22:47:00.198Z,11.40
2022-10-13T22:49:26.903Z,12.30
2022-10-13T22:51:53.506Z,11.40
2022-10-13T22:54:20.119Z,12.30
2022-10-13T22:56:46.709Z,11.20
2022-10-13T22:59:13.967Z,12.30
2022-10-13T23:01:40.615Z,12.00
2022-10-13T23:04:07.269Z,11.30
2022-10-13T23:06:34.661Z,11.30
2022-10-13T23:09:02.321Z,11.30
2022-10-13T23:11:28.958Z,11.30
2022-10-13T23:13:55.596Z,11.30
2022-10-13T23:16:23.273Z,11.00
2022-10-13T23:18:50.166Z,11.60
2022-10-13T23:21:17.943Z,10.80
2022-10-13T23:23:44.975Z,11.60
2022-10-13T23:26:15.734Z,12.10
2022-10-13T23:28:42.805Z,11.10
2022-10-13T23:31:11.458Z,12.10
2022-10-13T23:33:38.092Z,12.20
2022-10-13T23:36:05.480Z,12.30
2022-10-13T23:38:32.652Z,11.10
2022-10-13T23:41:06.390Z,11.30
2022-10-13T23:43:33.050Z,11.10
2022-10-13T23:45:59.691Z,12.10
2022-10-13T23:48:26.288Z,12.40
2022-10-13T23:50:52.895Z,12.00
2022-10-13T23:53:19.539Z,11.40
2022-10-13T23:55:46.372Z,11.10
2022-10-13T23:58:13.219Z,11.60
